Watertown, SD

7:21 PM CST on November 23, 2014 (GMT -0600)
Watertown Municipal | Change Station
CLOSE
Current Station
Airport
Location: Watertown,
Elevation: 1749 ft
Nearby Weather Stations
Active Advisory: Wind Advisory

Elev 1749 ft 44.90 °N, 97.15 °W | Updated 28 minutes ago

Overcast
Overcast
26 °F
Feels Like 11 °F
N
25
Wind Variable Wind from NW
Gusts 34 mph

Today
High -- | Low -- °F
--% Chance of Precip.
Yesterday
High -- | Low -- °F
Precip. -- in
7:36 AM 4:53 PM
Waxing Crescent, 3% visible
Pressure 29.60 in
Visibility 10.0 miles
Clouds Overcast 1600 ft
Windchill 11 °F
Dew Point 20 °F
Humidity 78%
Rainfall 0.00 in
Snow Depth Not available.
UV 0 out of 12
Pollen .10 out of 12
Air Quality Not available.
Flu Activity Not available.
METAR KATY 240053Z AUTO 32022G30KT 10SM OVC016 M03/M07 A2954 RMK AO2 PK WND 32030/0053 SLP022 T10331067

More Conditions Fewer Conditions

Pressure 29.60 in
Visibility 10.0 miles
Clouds Overcast 1600 ft
Windchill 11 °F
Dew Point 20 °F
Humidity 78%
Rainfall 0.00 in
Snow Depth Not available.
UV 0 out of 12
Pollen .10 out of 12
Air Quality Not available.
Flu Activity Not available.
METAR KATY 240053Z AUTO 32022G30KT 10SM OVC016 M03/M07 A2954 RMK AO2 PK WND 32030/0053 SLP022 T10331067

More Conditions Fewer Conditions

10-Day Weather Forecast

Almanac

Astronomy

Nov. 23, 2014 Rise Set
Actual Time
Civil Twilight
Nautical Twilight
Astronomical Twilight
Moon
Length of Visible Light
Length of Day
Tomorrow will be .
, % of the Moon is Illuminated

Today's Extremes

State Highs State Lows

Community

WunderPhotos

Upload Photos

1,773,234 photos uploaded!

WunderBlogs® & News

Nearby

Air Quality

  Air Quality AQ Index Pollutant
Not available.

Snow Depth

Station Depth Elevation

Earthquake Activity

City Distance Mag. Time & Date
Minimum magnitude displayed is 2.5.

Coastal Water Temperatures

Place Temperature

Nearby Weather Stations